Observation data for Paducah on 05/24/2020      Previous  Date  Next       Current Mesonet Observations  Soil Data  Daily Summary Page  Observations in Plain Language
KPAD 240500Z 13011KT 19/14 A2975 RMK A01 T01920138  RH  074%=      5-min Rain = 0
KPAD 240505Z 17010G16KT 19/14 A2976 RMK A01 T01940138  RH  073%=      5-min Rain = 0
KPAD 240510Z 17012G17KT 19/14 A2977 RMK A01 T01910139  RH  075%=      5-min Rain = 0
KPAD 240515Z 14012KT 20/13 A2977 RMK A01 T01980131  RH  068%=      5-min Rain = 0
KPAD 240520Z 15007KT 20/13 A2978 RMK A01 T01980134  RH  069%=      5-min Rain = 0
KPAD 240525Z 13007KT 20/13 A2978 RMK A01 T01960134  RH  070%=      5-min Rain = 0
KPAD 240530Z 15008KT 20/13 A2978 RMK A01 T01970134  RH  070%=      5-min Rain = 0
KPAD 240535Z 21006G11KT 19/14 A2979 RMK A01 T01890139  RH  076%=      5-min Rain = 0
KPAD 240540Z 13004G9KT 19/14 A2978 RMK A01 T01850137  RH  077%=      5-min Rain = 0
KPAD 240545Z 16007KT 19/14 A2979 RMK A01 T01880137  RH  075%=      5-min Rain = 0
KPAD 240550Z 11005G11KT 19/14 A2978 RMK A01 T01880136  RH  075%=      5-min Rain = 0
KPAD 240555Z 15009KT 19/14 A2979 RMK A01 T01900136  RH  074%=      5-min Rain = 0
KPAD 240600Z 16009KT 19/14 A298 RMK A01 T01880138  RH  076%=      5-min Rain = 0
KPAD 240605Z 17009KT 19/14 A298 RMK A01 T01860138  RH  077%=      5-min Rain = 0
KPAD 240610Z 16008KT 18/14 A298 RMK A01 T01840139  RH  078%=      5-min Rain = 0
KPAD 240615Z 16009KT 18/14 A298 RMK A01 T01820139  RH  079%=      5-min Rain = 0
KPAD 240620Z 17008KT 18/14 A298 RMK A01 T01820138  RH  079%=      5-min Rain = 0
KPAD 240625Z 17006KT 18/14 A298 RMK A01 T01810138  RH  079%=      5-min Rain = 0
KPAD 240630Z 19007KT 18/14 A298 RMK A01 T01800138  RH  079%=      5-min Rain = 0
KPAD 240635Z 17008KT 18/14 A298 RMK A01 T01810136  RH  078%=      5-min Rain = 0
KPAD 240640Z 18007KT 18/14 A298 RMK A01 T01820135  RH  077%=      5-min Rain = 0
KPAD 240645Z 20007KT 18/14 A298 RMK A01 T01800135  RH  079%=      5-min Rain = 0
KPAD 240650Z 19006KT 18/14 A298 RMK A01 T01770135  RH  080%=      5-min Rain = 0
KPAD 240655Z 21005KT 18/14 A298 RMK A01 T01770136  RH  080%=      5-min Rain = 0
KPAD 240700Z 22006KT 18/14 A298 RMK A01 T01770136  RH  080%=      5-min Rain = 0
KPAD 240705Z 22006KT 18/14 A298 RMK A01 T01760138  RH  082%=      5-min Rain = 0
KPAD 240710Z 18006KT 18/14 A298 RMK A01 T01760137  RH  081%=      5-min Rain = 0
KPAD 240715Z 19003KT 18/14 A2981 RMK A01 T01780136  RH  080%=      5-min Rain = 0
KPAD 240720Z 22006KT 18/14 A2981 RMK A01 T01770137  RH  081%=      5-min Rain = 0
KPAD 240725Z 20007KT 18/14 A298 RMK A01 T01760137  RH  082%=      5-min Rain = 0
KPAD 240730Z 23005KT 18/14 A298 RMK A01 T01770137  RH  081%=      5-min Rain = 0
KPAD 240735Z 21005KT 18/14 A298 RMK A01 T01760138  RH  082%=      5-min Rain = 0
KPAD 240740Z 22006KT 18/14 A298 RMK A01 T01750138  RH  082%=      5-min Rain = 0
KPAD 240745Z 20007KT 17/14 A298 RMK A01 T01720138  RH  084%=      5-min Rain = 0
KPAD 240750Z 20008KT 17/14 A2981 RMK A01 T01700138  RH  084%=      5-min Rain = 0
KPAD 240755Z 20008KT 17/14 A2981 RMK A01 T01710139  RH  085%=      5-min Rain = 0
KPAD 240800Z 19007KT 17/14 A2982 RMK A01 T01720140  RH  085%=      5-min Rain = 0
KPAD 240805Z 20007KT 17/14 A2982 RMK A01 T01720139  RH  085%=      5-min Rain = 0
KPAD 240810Z 19007KT 17/14 A2982 RMK A01 T01710140  RH  085%=      5-min Rain = 0
KPAD 240815Z 20007KT 17/14 A2982 RMK A01 T01700139  RH  085%=      5-min Rain = 0
KPAD 240820Z 20007KT 17/14 A2982 RMK A01 T01690139  RH  086%=      5-min Rain = 0
KPAD 240825Z 21007KT 17/14 A2982 RMK A01 T01700141  RH  086%=      5-min Rain = 0
KPAD 240830Z 19007KT 17/14 A2982 RMK A01 T01700140  RH  086%=      5-min Rain = 0
KPAD 240835Z 19007KT 17/14 A2982 RMK A01 T01700140  RH  086%=      5-min Rain = 0
KPAD 240840Z 19007KT 17/14 A2982 RMK A01 T01700139  RH  086%=      5-min Rain = 0
KPAD 240845Z 19008KT 17/14 A2982 RMK A01 T01710139  RH  085%=      5-min Rain = 0
KPAD 240850Z 20006KT 17/14 A2982 RMK A01 T01710138  RH  085%=      5-min Rain = 0
KPAD 240855Z 21006KT 17/14 A2982 RMK A01 T01700138  RH  085%=      5-min Rain = 0
KPAD 240900Z 21007KT 17/14 A2982 RMK A01 T01680138  RH  086%=      5-min Rain = 0
KPAD 240905Z 21007KT 17/14 A2982 RMK A01 T01680138  RH  086%=      5-min Rain = 0
KPAD 240910Z 21007KT 17/14 A2982 RMK A01 T01680138  RH  086%=      5-min Rain = 0
KPAD 240915Z 21006KT 17/14 A2982 RMK A01 T01690139  RH  086%=      5-min Rain = 0
KPAD 240920Z 21006KT 17/14 A2982 RMK A01 T01690139  RH  086%=      5-min Rain = 0
KPAD 240925Z 21005KT 17/14 A2981 RMK A01 T01700139  RH  085%=      5-min Rain = 0
KPAD 240930Z 21005KT 17/14 A2981 RMK A01 T01690138  RH  085%=      5-min Rain = 0
KPAD 240935Z 22005KT 17/14 A2981 RMK A01 T01700139  RH  085%=      5-min Rain = 0
KPAD 240940Z 22005KT 17/14 A2982 RMK A01 T01690138  RH  086%=      5-min Rain = 0
KPAD 240945Z 21005KT 17/14 A2982 RMK A01 T01680138  RH  086%=      5-min Rain = 0
KPAD 240950Z 21005KT 17/14 A2982 RMK A01 T01680138  RH  086%=      5-min Rain = 0
KPAD 240955Z 22004KT 17/14 A2981 RMK A01 T01670138  RH  086%=      5-min Rain = 0
KPAD 241000Z 22005KT 17/14 A2982 RMK A01 T01670138  RH  086%=      5-min Rain = 0
KPAD 241005Z 21006KT 17/14 A2981 RMK A01 T01670138  RH  086%=      5-min Rain = 0
KPAD 241010Z 21006KT 17/14 A2981 RMK A01 T01660137  RH  087%=      5-min Rain = 0
KPAD 241015Z 21007KT 17/14 A2981 RMK A01 T01650137  RH  087%=      5-min Rain = 0
KPAD 241020Z 21007KT 16/14 A2981 RMK A01 T01640137  RH  087%=      5-min Rain = 0
KPAD 241025Z 21007KT 16/14 A2981 RMK A01 T01640137  RH  087%=      5-min Rain = 0
KPAD 241030Z 21007KT 16/14 A2981 RMK A01 T01640137  RH  088%=      5-min Rain = 0
KPAD 241035Z 21008KT 16/14 A2982 RMK A01 T01640137  RH  088%=      5-min Rain = 0
KPAD 241040Z 21008KT 16/14 A2982 RMK A01 T01640137  RH  088%=      5-min Rain = 0
KPAD 241045Z 21008KT 16/14 A2981 RMK A01 T01640137  RH  088%=      5-min Rain = 0
KPAD 241050Z 21007KT 16/14 A2981 RMK A01 T01640137  RH  088%=      5-min Rain = 0
KPAD 241055Z 21008KT 16/14 A2981 RMK A01 T01630137  RH  088%=      5-min Rain = 0
KPAD 241100Z 21008KT 16/14 A2981 RMK A01 T01640138  RH  088%=      5-min Rain = 0
KPAD 241105Z 21008KT 16/14 A2981 RMK A01 T01640138  RH  088%=      5-min Rain = 0
KPAD 241110Z 21009KT 16/14 A2981 RMK A01 T01640138  RH  088%=      5-min Rain = 0
KPAD 241115Z 21009KT 16/14 A298 RMK A01 T01640138  RH  088%=      5-min Rain = 0
KPAD 241120Z 21009KT 16/14 A298 RMK A01 T01640138  RH  088%=      5-min Rain = 0
KPAD 241125Z 21009KT 16/14 A298 RMK A01 T01630137  RH  088%=      5-min Rain = 0
KPAD 241130Z 21009KT 16/14 A298 RMK A01 T01630137  RH  088%=      5-min Rain = 0
KPAD 241135Z 21009KT 16/14 A298 RMK A01 T01640137  RH  088%=      5-min Rain = 0
KPAD 241140Z 21009KT 16/14 A2981 RMK A01 T01640137  RH  088%=      5-min Rain = 0
KPAD 241145Z 21009KT 16/14 A2981 RMK A01 T01640137  RH  088%=      5-min Rain = 0
KPAD 241150Z 20009KT 16/14 A2981 RMK A01 T01640137  RH  088%=      5-min Rain = 0
KPAD 241155Z 20009KT 16/14 A2981 RMK A01 T01630137  RH  088%=      5-min Rain = 0
KPAD 241200Z 20009KT 16/14 A2982 RMK A01 T01630137  RH  089%=      5-min Rain = 0
KPAD 241205Z 20009KT 16/14 A2982 RMK A01 T01620138  RH  089%=      5-min Rain = 0
KPAD 241210Z 20008KT 16/14 A2982 RMK A01 T01630138  RH  089%=      5-min Rain = 0
KPAD 241215Z 21008KT 16/14 A2982 RMK A01 T01640139  RH  089%=      5-min Rain = 0
KPAD 241220Z 20008KT 17/14 A2983 RMK A01 T01650139  RH  088%=      5-min Rain = 0
KPAD 241225Z 20008KT 17/14 A2983 RMK A01 T01650139  RH  088%=      5-min Rain = 0
KPAD 241230Z 19008KT 17/14 A2983 RMK A01 T01660140  RH  088%=      5-min Rain = 0
KPAD 241235Z 19008KT 17/14 A2983 RMK A01 T01670140  RH  088%=      5-min Rain = 0
KPAD 241240Z 19008KT 17/14 A2983 RMK A01 T01670140  RH  088%=      5-min Rain = 0
KPAD 241245Z 19007KT 17/14 A2984 RMK A01 T01680142  RH  088%=      5-min Rain = 0
KPAD 241250Z 19008KT 17/15 A2984 RMK A01 T01710145  RH  088%=      5-min Rain = 0
KPAD 241255Z 19007KT 18/15 A2984 RMK A01 T01760148  RH  087%=      5-min Rain = 0
KPAD 241300Z 19008KT 18/15 A2984 RMK A01 T01790147  RH  085%=      5-min Rain = 0
KPAD 241305Z 19008KT 18/15 A2984 RMK A01 T01810149  RH  085%=      5-min Rain = 0
KPAD 241310Z 19009KT 19/15 A2984 RMK A01 T01850149  RH  083%=      5-min Rain = 0
KPAD 241315Z 19009KT 19/15 A2983 RMK A01 T01880150  RH  082%=      5-min Rain = 0
KPAD 241320Z 19010KT 19/15 A2983 RMK A01 T01910152  RH  082%=      5-min Rain = 0
KPAD 241325Z 19012KT 19/15 A2983 RMK A01 T01930154  RH  082%=      5-min Rain = 0
KPAD 241330Z 19013G18KT 20/16 A2983 RMK A01 T01950155  RH  081%=      5-min Rain = 0
KPAD 241335Z 18011G17KT 20/16 A2983 RMK A01 T01990159  RH  082%=      5-min Rain = 0
KPAD 241340Z 19012G18KT 20/16 A2983 RMK A01 T02010160  RH  081%=      5-min Rain = 0
KPAD 241345Z 18012G18KT 20/16 A2983 RMK A01 T02020161  RH  081%=      5-min Rain = 0
KPAD 241350Z 18013KT 20/16 A2983 RMK A01 T02040162  RH  081%=      5-min Rain = 0
KPAD 241355Z 18016G22KT 21/16 A2983 RMK A01 T02050164  RH  081%=      5-min Rain = 0
KPAD 241400Z 17015G20KT 21/17 A2982 RMK A01 T02070166  RH  081%=      5-min Rain = 0
KPAD 241405Z 18018G23KT 21/17 A2981 RMK A01 T02080167  RH  081%=      5-min Rain = 0
KPAD 241410Z 17017G24KT 21/17 A2981 RMK A01 T02090169  RH  082%=      5-min Rain = 0
KPAD 241415Z 17017G23KT 21/17 A2981 RMK A01 T02100169  RH  081%=      5-min Rain = 0
KPAD 241420Z 17017G22KT 21/17 A2981 RMK A01 T02110169  RH  081%=      5-min Rain = 0
KPAD 241425Z 17016G22KT 21/17 A2981 RMK A01 T02130171  RH  081%=      5-min Rain = 0
KPAD 241430Z 17016G21KT 22/17 A2982 RMK A01 T02160173  RH  080%=      5-min Rain = 0
KPAD 241435Z 18016G24KT 22/17 A2982 RMK A01 T02190172  RH  079%=      5-min Rain = 0
KPAD 241440Z 18015G22KT 22/17 A2983 RMK A01 T02220173  RH  077%=      5-min Rain = 0
KPAD 241445Z 18013G19KT 23/17 A2983 RMK A01 T02250172  RH  076%=      5-min Rain = 0
KPAD 241450Z 18012G18KT 23/17 A2983 RMK A01 T02260171  RH  075%=      5-min Rain = 0
KPAD 241455Z 18012KT 23/17 A2983 RMK A01 T02290172  RH  074%=      5-min Rain = 0
KPAD 241500Z 18011G16KT 23/17 A2982 RMK A01 T02330173  RH  073%=      5-min Rain = 0
KPAD 241505Z 18012KT 24/17 A2982 RMK A01 T02360170  RH  070%=      5-min Rain = 0
KPAD 241510Z 18012KT 24/17 A2983 RMK A01 T02380170  RH  069%=      5-min Rain = 0
KPAD 241515Z 19012G18KT 24/17 A2983 RMK A01 T02420170  RH  067%=      5-min Rain = 0
KPAD 241520Z 19014G19KT 24/17 A2982 RMK A01 T02440166  RH  065%=      5-min Rain = 0
KPAD 241525Z 20015G20KT 24/16 A2982 RMK A01 T02440164  RH  064%=      5-min Rain = 0
KPAD 241530Z 20016G22KT 25/16 A2982 RMK A01 T02470159  RH  061%=      5-min Rain = 0
KPAD 241535Z 19015G22KT 25/16 A2982 RMK A01 T02500162  RH  061%=      5-min Rain = 0
KPAD 241540Z 19016G23KT 25/16 A2982 RMK A01 T02510159  RH  060%=      5-min Rain = 0
KPAD 241545Z 19018G23KT 25/16 A2982 RMK A01 T02510156  RH  058%=      5-min Rain = 0
KPAD 241550Z 20017KT 25/16 A2982 RMK A01 T02530158  RH  058%=      5-min Rain = 0
KPAD 241555Z 20017G22KT 25/16 A2982 RMK A01 T02540159  RH  058%=      5-min Rain = 0
KPAD 241600Z 18016G22KT 26/16 A2982 RMK A01 T02560160  RH  058%=      5-min Rain = 0
KPAD 241605Z 19017G25KT 26/16 A2982 RMK A01 T02560159  RH  058%=      5-min Rain = 0
KPAD 241610Z 19017KT 26/16 A2982 RMK A01 T02570159  RH  057%=      5-min Rain = 0
KPAD 241615Z 18016G25KT 26/16 A2981 RMK A01 T02620162  RH  057%=      5-min Rain = 0
KPAD 241620Z 18016G23KT 26/16 A2981 RMK A01 T02600162  RH  057%=      5-min Rain = 0
KPAD 241625Z 18016G22KT 26/16 A2981 RMK A01 T02620162  RH  057%=      5-min Rain = 0
KPAD 241630Z 19018G23KT 26/16 A2981 RMK A01 T02620157  RH  055%=      5-min Rain = 0
KPAD 241635Z 18017G23KT 26/16 A2981 RMK A01 T02640158  RH  055%=      5-min Rain = 0
KPAD 241640Z 18017G22KT 26/16 A2981 RMK A01 T02640157  RH  054%=      5-min Rain = 0
KPAD 241645Z 18017G24KT 27/16 A2981 RMK A01 T02660158  RH  054%=      5-min Rain = 0
KPAD 241650Z 18019G25KT 27/16 A2981 RMK A01 T02680157  RH  053%=      5-min Rain = 0
KPAD 241655Z 19017G23KT 27/16 A2981 RMK A01 T02690158  RH  053%=      5-min Rain = 0
KPAD 241700Z 18016G23KT 27/16 A2982 RMK A01 T02710161  RH  054%=      5-min Rain = 0
KPAD 241705Z 18016G22KT 27/16 A2981 RMK A01 T02720163  RH  054%=      5-min Rain = 0
KPAD 241710Z 17016G22KT 27/16 A2982 RMK A01 T02710161  RH  054%=      5-min Rain = 0
KPAD 241715Z 17015G20KT 27/16 A2981 RMK A01 T02710162  RH  054%=      5-min Rain = 0
KPAD 241720Z 17015G22KT 28/16 A2981 RMK A01 T02750163  RH  053%=      5-min Rain = 0
KPAD 241725Z 18017G23KT 28/16 A2981 RMK A01 T02750162  RH  052%=      5-min Rain = 0
KPAD 241730Z 18017G22KT 28/16 A2981 RMK A01 T02760161  RH  052%=      5-min Rain = 0
KPAD 241735Z 17016G25KT 28/16 A298 RMK A01 T02770164  RH  053%=      5-min Rain = 0
KPAD 241740Z 18017G25KT 28/17 A298 RMK A01 T02810165  RH  052%=      5-min Rain = 0
KPAD 241745Z 19018G26KT 28/16 A298 RMK A01 T02800164  RH  052%=      5-min Rain = 0
KPAD 241750Z 17014KT 28/17 A298 RMK A01 T02820167  RH  052%=      5-min Rain = 0
KPAD 241755Z 17016G26KT 28/17 A298 RMK A01 T02810167  RH  052%=      5-min Rain = 0
KPAD 241800Z 18017G24KT 28/17 A298 RMK A01 T02830166  RH  052%=      5-min Rain = 0
KPAD 241805Z 18015G24KT 29/17 A298 RMK A01 T02850169  RH  052%=      5-min Rain = 0
KPAD 241810Z 18014G21KT 29/17 A298 RMK A01 T02900171  RH  051%=      5-min Rain = 0
KPAD 241815Z 17016G25KT 29/17 A2979 RMK A01 T02890168  RH  050%=      5-min Rain = 0
KPAD 241820Z 19016G23KT 29/17 A2979 RMK A01 T02880169  RH  051%=      5-min Rain = 0
KPAD 241825Z 18015G20KT 29/17 A2979 RMK A01 T02880170  RH  051%=      5-min Rain = 0
KPAD 241830Z 19015G20KT 29/17 A2979 RMK A01 T02930173  RH  051%=      5-min Rain = 0
KPAD 241835Z 17013G19KT 29/17 A2979 RMK A01 T02930171  RH  050%=      5-min Rain = 0
KPAD 241840Z 17015G21KT 29/17 A2978 RMK A01 T02930173  RH  051%=      5-min Rain = 0
KPAD 241845Z 18013G18KT 29/17 A2978 RMK A01 T02940174  RH  051%=      5-min Rain = 0
KPAD 241850Z 18014G20KT 30/18 A2978 RMK A01 T03000176  RH  050%=      5-min Rain = 0
KPAD 241855Z 18013G19KT 30/17 A2978 RMK A01 T02960174  RH  050%=      5-min Rain = 0
KPAD 241900Z 18013G21KT 30/18 A2977 RMK A01 T02980176  RH  050%=      5-min Rain = 0
KPAD 241905Z 17015G24KT 30/18 A2977 RMK A01 T02980176  RH  050%=      5-min Rain = 0
KPAD 241910Z 18014G21KT 30/18 A2977 RMK A01 T03000176  RH  050%=      5-min Rain = 0
KPAD 241915Z 18012G20KT 30/18 A2977 RMK A01 T02980177  RH  051%=      5-min Rain = 0
KPAD 241920Z 18013KT 30/18 A2976 RMK A01 T03000176  RH  050%=      5-min Rain = 0
KPAD 241925Z 19011G17KT 30/18 A2976 RMK A01 T03030179  RH  050%=      5-min Rain = 0
KPAD 241930Z 18013G18KT 30/18 A2976 RMK A01 T03030180  RH  050%=      5-min Rain = 0
KPAD 241935Z 18014G20KT 31/18 A2976 RMK A01 T03050178  RH  049%=      5-min Rain = 0
KPAD 241940Z 17013G20KT 30/18 A2976 RMK A01 T02990176  RH  050%=      5-min Rain = 0
KPAD 241945Z 19015G22KT 30/18 A2975 RMK A01 T02980176  RH  051%=      5-min Rain = 0
KPAD 241950Z 18011KT 30/18 A2975 RMK A01 T02990177  RH  051%=      5-min Rain = 0
KPAD 241955Z 18011KT 30/18 A2975 RMK A01 T02970178  RH  051%=      5-min Rain = 0
KPAD 242000Z 17013G19KT 30/18 A2975 RMK A01 T02970177  RH  051%=      5-min Rain = 0
KPAD 242005Z 17009G18KT 29/18 A2975 RMK A01 T02940178  RH  053%=      5-min Rain = 0
KPAD 242010Z 18010G15KT 30/18 A2975 RMK A01 T02960180  RH  052%=      5-min Rain = 0
KPAD 242015Z 17010G15KT 30/18 A2975 RMK A01 T03020181  RH  051%=      5-min Rain = 0
KPAD 242020Z 20011G17KT 30/18 A2975 RMK A01 T03000175  RH  050%=      5-min Rain = 0
KPAD 242025Z 19011KT 31/18 A2975 RMK A01 T03060178  RH  049%=      5-min Rain = 0
KPAD 242030Z 21011G16KT 31/18 A2974 RMK A01 T03090178  RH  048%=      5-min Rain = 0
KPAD 242035Z 19012KT 31/18 A2974 RMK A01 T03080175  RH  047%=      5-min Rain = 0
KPAD 242040Z 20011KT 31/18 A2974 RMK A01 T03050177  RH  049%=      5-min Rain = 0
KPAD 242045Z 18012G17KT 31/18 A2973 RMK A01 T03130180  RH  047%=      5-min Rain = 0
KPAD 242050Z 18011G18KT 31/18 A2973 RMK A01 T03060176  RH  048%=      5-min Rain = 0
KPAD 242055Z 16012G18KT 31/18 A2973 RMK A01 T03050181  RH  050%=      5-min Rain = 0
KPAD 242100Z 15010G15KT 30/18 A2973 RMK A01 T03010179  RH  051%=      5-min Rain = 0
KPAD 242105Z 18007G13KT 30/18 A2972 RMK A01 T02990182  RH  052%=      5-min Rain = 0
KPAD 242110Z 18011G16KT 31/19 A2972 RMK A01 T03120185  RH  049%=      5-min Rain = 0
KPAD 242115Z 17011G16KT 31/18 A2971 RMK A01 T03110181  RH  048%=      5-min Rain = 0
KPAD 242120Z 18012KT 31/18 A2971 RMK A01 T03090180  RH  049%=      5-min Rain = 0
KPAD 242125Z 17009G14KT 31/19 A2971 RMK A01 T03110185  RH  049%=      5-min Rain = 0
KPAD 242130Z 18012KT 31/18 A2971 RMK A01 T03110180  RH  048%=      5-min Rain = 0
KPAD 242135Z 16012KT 31/18 A297 RMK A01 T03100181  RH  049%=      5-min Rain = 0
KPAD 242140Z 17012G17KT 31/18 A297 RMK A01 T03130181  RH  048%=      5-min Rain = 0
KPAD 242145Z 17011KT 31/18 A297 RMK A01 T03140180  RH  047%=      5-min Rain = 0
KPAD 242150Z 16012G18KT 31/18 A297 RMK A01 T03100181  RH  049%=      5-min Rain = 0
KPAD 242155Z 16010G17KT 31/18 A2969 RMK A01 T03110181  RH  048%=      5-min Rain = 0
KPAD 242200Z 15010G19KT 31/18 A2969 RMK A01 T03140181  RH  048%=      5-min Rain = 0
KPAD 242205Z 18011G16KT 32/18 A2968 RMK A01 T03150177  RH  046%=      5-min Rain = 0
KPAD 242210Z 18011G16KT 32/18 A2968 RMK A01 T03160178  RH  046%=      5-min Rain = 0
KPAD 242215Z 16011KT 32/18 A2968 RMK A01 T03190180  RH  046%=      5-min Rain = 0
KPAD 242220Z 16010KT 31/18 A2967 RMK A01 T03120178  RH  047%=      5-min Rain = 0
KPAD 242225Z 15009G15KT 31/18 A2967 RMK A01 T03120176  RH  047%=      5-min Rain = 0
KPAD 242230Z 15012G17KT 31/18 A2967 RMK A01 T03130177  RH  047%=      5-min Rain = 0
KPAD 242235Z 14009KT 31/18 A2967 RMK A01 T03100177  RH  048%=      5-min Rain = 0
KPAD 242240Z 14012G19KT 32/18 A2966 RMK A01 T03150179  RH  047%=      5-min Rain = 0
KPAD 242245Z 14013G19KT 31/18 A2966 RMK A01 T03130177  RH  047%=      5-min Rain = 0
KPAD 242250Z 14012G17KT 31/18 A2965 RMK A01 T03060178  RH  049%=      5-min Rain = 0
KPAD 242255Z 14012G19KT 31/18 A2965 RMK A01 T03080178  RH  048%=      5-min Rain = 0
KPAD 242300Z 15011KT 31/18 A2965 RMK A01 T03130177  RH  047%=      5-min Rain = 0
KPAD 242305Z 15011G18KT 32/18 A2965 RMK A01 T03150178  RH  046%=      5-min Rain = 0
KPAD 242310Z 14013G19KT 31/17 A2965 RMK A01 T03110173  RH  046%=      5-min Rain = 0
KPAD 242315Z 15011KT 31/18 A2965 RMK A01 T03080178  RH  048%=      5-min Rain = 0
KPAD 242320Z 16010KT 31/18 A2965 RMK A01 T03100177  RH  047%=      5-min Rain = 0
KPAD 242325Z 16012G17KT 31/18 A2964 RMK A01 T03090176  RH  047%=      5-min Rain = 0
KPAD 242330Z 15010G17KT 31/17 A2964 RMK A01 T03050173  RH  048%=      5-min Rain = 0
KPAD 242335Z 14014G20KT 30/17 A2964 RMK A01 T03020173  RH  048%=      5-min Rain = 0
KPAD 242340Z 14013G18KT 30/17 A2964 RMK A01 T03000171  RH  048%=      5-min Rain = 0
KPAD 242345Z 13012G17KT 30/17 A2964 RMK A01 T02990171  RH  048%=      5-min Rain = 0
KPAD 242350Z 14014G20KT 30/17 A2964 RMK A01 T03000172  RH  049%=      5-min Rain = 0
KPAD 242355Z 14014KT 30/17 A2964 RMK A01 T02990169  RH  048%=      5-min Rain = 0
KPAD 250000Z 14012KT 30/17 A2964 RMK A01 T02990170  RH  048%=      5-min Rain = 0
KPAD 250005Z 13012KT 30/17 A2964 RMK A01 T02980170  RH  049%=      5-min Rain = 0
KPAD 250010Z 13011KT 30/17 A2964 RMK A01 T02970172  RH  049%=      5-min Rain = 0
KPAD 250015Z 13012KT 30/17 A2964 RMK A01 T02960169  RH  049%=      5-min Rain = 0
KPAD 250020Z 13013KT 30/17 A2963 RMK A01 T02960167  RH  048%=      5-min Rain = 0
KPAD 250025Z 13011G16KT 30/17 A2963 RMK A01 T02950167  RH  048%=      5-min Rain = 0
KPAD 250030Z 13010KT 29/17 A2963 RMK A01 T02940168  RH  049%=      5-min Rain = 0
KPAD 250035Z 13011KT 29/17 A2963 RMK A01 T02930168  RH  049%=      5-min Rain = 0
KPAD 250040Z 13012KT 29/17 A2963 RMK A01 T02910169  RH  050%=      5-min Rain = 0
KPAD 250045Z 13012KT 29/17 A2962 RMK A01 T02900169  RH  050%=      5-min Rain = 0
KPAD 250050Z 13013KT 29/17 A2963 RMK A01 T02880170  RH  051%=      5-min Rain = 0
KPAD 250055Z 13013KT 29/17 A2964 RMK A01 T02870170  RH  052%=      5-min Rain = 0
KPAD 250100Z 13011KT 29/17 A2964 RMK A01 T02860171  RH  053%=      5-min Rain = 0
KPAD 250105Z 13011KT 28/17 A2965 RMK A01 T02840172  RH  053%=      5-min Rain = 0
KPAD 250110Z 14010KT 28/17 A2965 RMK A01 T02830173  RH  054%=      5-min Rain = 0
KPAD 250115Z 14010G15KT 28/17 A2966 RMK A01 T02820173  RH  054%=      5-min Rain = 0
KPAD 250120Z 14010KT 28/17 A2966 RMK A01 T02820173  RH  054%=      5-min Rain = 0
KPAD 250125Z 16009G15KT 28/17 A2967 RMK A01 T02800174  RH  055%=      5-min Rain = 0
KPAD 250130Z 26026G36KT 26/11 A2973 RMK A01 T02600113  RH  042%=      5-min Rain = 0
KPAD 250135Z 27030G41KT 23/11 A2973 RMK A01 T02280110  RH  050%=      5-min Rain = 0
KPAD 250140Z 28034G44KT 18/13 A2969 RMK A01 T01820132  RH  076%=      5-min Rain = 0.04
KPAD 250145Z 27025G36KT 16/13 A2972 RMK A01 T01630133  RH  086%=      5-min Rain = 0.07
KPAD 250150Z 22013KT 16/13 A2979 RMK A01 T01570133  RH  089%=      5-min Rain = 0.03
KPAD 250155Z 20012G18KT 15/13 A298 RMK A01 T01540134  RH  091%=      5-min Rain = 0.02
KPAD 250200Z 21014G20KT 15/14 A2981 RMK A01 T01530135  RH  092%=      5-min Rain = 0.01
KPAD 250205Z 21013G18KT 15/14 A2981 RMK A01 T01540135  RH  092%=      5-min Rain = 0.01
KPAD 250210Z 22011KT 16/14 A2979 RMK A01 T01550136  RH  092%=      5-min Rain = 0.01
KPAD 250215Z 24009KT 16/14 A2977 RMK A01 T01560137  RH  092%=      5-min Rain = 0.02
KPAD 250220Z 24007KT 16/14 A2977 RMK A01 T01570138  RH  093%=      5-min Rain = 0.01
KPAD 250225Z 22008KT 16/14 A2979 RMK A01 T01570139  RH  093%=      5-min Rain = 0.02
KPAD 250230Z 23009KT 16/14 A298 RMK A01 T01570139  RH  093%=      5-min Rain = 0.02
KPAD 250235Z 25012KT 16/14 A2979 RMK A01 T01570141  RH  094%=      5-min Rain = 0.01
KPAD 250240Z 26012G18KT 16/14 A2979 RMK A01 T01590142  RH  094%=      5-min Rain = 0
KPAD 250245Z 23012KT 16/14 A298 RMK A01 T01610143  RH  093%=      5-min Rain = 0.01
KPAD 250250Z 20014G20KT 16/15 A298 RMK A01 T01640145  RH  092%=      5-min Rain = 0
KPAD 250255Z 20014G20KT 17/15 A298 RMK A01 T01680146  RH  091%=      5-min Rain = 0.01
KPAD 250300Z 19011KT 17/15 A298 RMK A01 T01690147  RH  091%=      5-min Rain = 0.01
KPAD 250305Z 19010KT 17/15 A2981 RMK A01 T01710148  RH  091%=      5-min Rain = 0.02
KPAD 250310Z 20006KT 17/15 A2981 RMK A01 T01710149  RH  091%=      5-min Rain = 0.01
KPAD 250315Z 35007KT 17/15 A2982 RMK A01 T01700148  RH  091%=      5-min Rain = 0
KPAD 250320Z 35005KT 17/15 A2982 RMK A01 T01680147  RH  092%=      5-min Rain = 0.01
KPAD 250325Z 35003KT 17/15 A2982 RMK A01 T01670147  RH  092%=      5-min Rain = 0.01
KPAD 250330Z 02004KT 17/15 A2982 RMK A01 T01660146  RH  092%=      5-min Rain = 0.01
KPAD 250335Z 05005KT 17/15 A2983 RMK A01 T01660147  RH  093%=      5-min Rain = 0.01
KPAD 250340Z 05005KT 17/15 A2984 RMK A01 T01670149  RH  093%=      5-min Rain = 0.01
KPAD 250345Z 04005KT 17/15 A2984 RMK A01 T01660149  RH  093%=      5-min Rain = 0.01
KPAD 250350Z 03006KT 17/15 A2984 RMK A01 T01660149  RH  094%=      5-min Rain = 0.03
KPAD 250355Z 02006KT 17/15 A2984 RMK A01 T01660150  RH  094%=      5-min Rain = 0.02
KPAD 250400Z 02008KT 17/15 A2984 RMK A01 T01660150  RH  095%=      5-min Rain = 0.03
KPAD 250405Z 02009KT 17/15 A2983 RMK A01 T01650151  RH  095%=      5-min Rain = 0.04
KPAD 250410Z 01009KT 16/15 A2983 RMK A01 T01640149  RH  095%=      5-min Rain = 0.02
KPAD 250415Z 01009KT 16/15 A2984 RMK A01 T01620149  RH  096%=      5-min Rain = 0.03
KPAD 250420Z 02010KT 16/15 A2984 RMK A01 T01620149  RH  096%=      5-min Rain = 0.02
KPAD 250425Z 05011KT 16/15 A2984 RMK A01 T01620149  RH  096%=      5-min Rain = 0.03
KPAD 250430Z 06013KT 16/15 A2984 RMK A01 T01630150  RH  096%=      5-min Rain = 0.02
KPAD 250435Z 05013KT 16/15 A2985 RMK A01 T01630150  RH  096%=      5-min Rain = 0.02
KPAD 250440Z 04017KT 16/15 A2985 RMK A01 T01620149  RH  096%=      5-min Rain = 0.02
KPAD 250445Z 03016G22KT 16/15 A2984 RMK A01 T01610148  RH  096%=      5-min Rain = 0.02
KPAD 250450Z 04017G22KT 16/15 A2984 RMK A01 T01610148  RH  096%=      5-min Rain = 0.02
KPAD 250455Z 03019G27KT 16/15 A2984 RMK A01 T01610148  RH  096%=      5-min Rain = 0.02

Page generated in 0.0274 seconds.